Time;durP1;ratioP1;P1;durP2;ratioP2;P2;SDS_P1;SDS_P2;PMS_P1;PMS_P2;Temp;Humidity;BMP_temperature;BMP_pressure;BME280_temperature;BME280_humidity;BME280_pressure;Samples;Min_cycle;Max_cycle;Signal;HPM_P1;HPM_P2
2022/08/26 00:01:43;;;;;;;18.48;14.55;;;17.70;99.90;;;;;;5074199;28;20031;-52
2022/08/26 00:04:09;;;;;;;21.90;14.30;;;17.70;99.90;;;;;;5091037;28;20035;-51
2022/08/26 00:06:36;;;;;;;18.58;12.95;;;17.60;99.90;;;;;;5078220;28;20035;-50
2022/08/26 00:09:02;;;;;;;21.10;14.10;;;17.60;99.90;;;;;;5071962;28;20028;-53
2022/08/26 00:11:28;;;;;;;23.08;13.20;;;17.60;99.90;;;;;;5074060;28;20081;-51
2022/08/26 00:13:55;;;;;;;28.08;14.82;;;17.60;99.90;;;;;;5064698;28;20098;-54
2022/08/26 00:16:22;;;;;;;19.45;14.38;;;17.60;99.90;;;;;;5087336;28;20046;-55
2022/08/26 00:18:48;;;;;;;26.50;14.52;;;17.60;99.90;;;;;;5094682;28;20028;-54
2022/08/26 00:21:14;;;;;;;22.15;14.55;;;17.60;99.90;;;;;;5093905;28;20414;-51
2022/08/26 00:23:40;;;;;;;22.50;13.95;;;17.60;99.90;;;;;;5076071;28;20033;-52
2022/08/26 00:26:06;;;;;;;21.85;14.70;;;17.50;99.90;;;;;;5073996;28;20051;-53
2022/08/26 00:28:33;;;;;;;24.65;15.48;;;17.50;99.90;;;;;;5074026;28;20433;-51
2022/08/26 00:30:59;;;;;;;21.80;15.32;;;17.60;99.90;;;;;;5074085;28;20043;-55
2022/08/26 00:33:25;;;;;;;24.25;15.52;;;17.60;99.90;;;;;;5089259;28;20634;-55
2022/08/26 00:35:51;;;;;;;23.33;14.68;;;17.60;99.90;;;;;;5093679;28;20024;-54
2022/08/26 00:38:16;;;;;;;19.38;14.80;;;17.60;99.90;;;;;;5092398;28;20070;-52
2022/08/26 00:40:46;;;;;;;20.80;14.80;;;17.60;99.90;;;;;;5076712;28;20025;-54
2022/08/26 00:43:12;;;;;;;28.88;14.25;;;17.60;99.90;;;;;;5074923;28;20040;-52
2022/08/26 00:46:09;;;;;;;28.17;14.80;;;17.50;99.90;;;;;;5073950;28;20420;-54
2022/08/26 00:48:37;;;;;;;25.92;14.02;;;17.50;99.90;;;;;;5071583;28;20056;-51
2022/08/26 00:51:15;;;;;;;26.90;14.40;;;17.50;99.90;;;;;;5083402;28;20118;-52
2022/08/26 00:53:48;;;;;;;23.00;14.23;;;17.50;99.90;;;;;;5076117;28;20035;-52
2022/08/26 00:56:25;;;;;;;30.40;13.82;;;17.50;99.90;;;;;;5073599;28;20102;-51
2022/08/26 00:58:52;;;;;;;17.60;13.70;;;17.40;99.90;;;;;;5073579;28;20345;-51
2022/08/26 01:01:18;;;;;;;23.15;14.80;;;17.40;99.90;;;;;;5075699;28;20522;-52
2022/08/26 01:03:45;;;;;;;31.38;15.05;;;17.30;99.90;;;;;;5076711;28;20108;-53
2022/08/26 01:06:12;;;;;;;22.42;13.02;;;17.30;99.90;;;;;;5071935;28;20033;-53
2022/08/26 01:08:38;;;;;;;22.52;13.88;;;17.30;99.90;;;;;;5073226;28;20570;-53
2022/08/26 01:11:05;;;;;;;22.88;13.38;;;17.20;99.90;;;;;;5073168;28;20421;-52
2022/08/26 01:13:36;;;;;;;24.42;14.60;;;17.20;99.90;;;;;;5071866;28;20028;-54
2022/08/26 01:16:04;;;;;;;24.20;13.75;;;17.10;99.90;;;;;;5073292;28;20016;-51
2022/08/26 01:18:30;;;;;;;32.10;16.08;;;17.10;99.90;;;;;;5073017;28;20016;-53
2022/08/26 01:21:07;;;;;;;30.52;14.80;;;17.10;99.90;;;;;;5071047;28;20123;-52
2022/08/26 01:23:37;;;;;;;21.63;14.38;;;17.10;99.90;;;;;;5071496;28;20673;-51
2022/08/26 01:26:08;;;;;;;27.48;13.70;;;17.10;99.90;;;;;;5073169;28;20033;-51
2022/08/26 01:28:35;;;;;;;27.20;14.10;;;17.10;99.90;;;;;;5072998;28;20021;-55
2022/08/26 01:31:04;;;;;;;23.88;15.02;;;17.10;99.90;;;;;;5071730;28;20029;-54
2022/08/26 01:33:54;;;;;;;23.08;13.02;;;17.00;99.90;;;;;;5072569;28;20028;-53
2022/08/26 01:36:20;;;;;;;21.15;12.57;;;16.90;99.90;;;;;;5066398;28;20101;-54
2022/08/26 01:38:45;;;;;;;20.85;13.05;;;16.90;99.90;;;;;;5072837;28;20025;-54
2022/08/26 01:41:13;;;;;;;19.35;14.18;;;16.80;99.90;;;;;;5076288;28;20028;-52
2022/08/26 01:43:42;;;;;;;28.25;13.73;;;16.80;99.90;;;;;;5076158;28;20024;-54
2022/08/26 01:46:08;;;;;;;20.50;13.52;;;16.80;99.90;;;;;;5072507;28;20059;-54
2022/08/26 01:48:35;;;;;;;34.47;14.10;;;16.80;99.90;;;;;;5073647;28;20066;-52
2022/08/26 01:51:03;;;;;;;22.75;13.65;;;16.80;99.90;;;;;;5072553;28;20036;-51
2022/08/26 01:53:29;;;;;;;20.48;13.27;;;16.70;99.90;;;;;;5086836;28;20024;-54
2022/08/26 01:55:58;;;;;;;25.90;13.60;;;16.70;99.90;;;;;;5092465;28;20113;-51
2022/08/26 01:58:31;;;;;;;33.75;14.52;;;16.60;99.90;;;;;;5092456;28;20039;-52
2022/08/26 02:00:57;;;;;;;20.80;14.63;;;16.50;99.90;;;;;;5083136;28;20024;-55
2022/08/26 02:03:23;;;;;;;24.00;14.27;;;16.50;99.90;;;;;;5085720;28;20401;-53
2022/08/26 02:06:05;;;;;;;26.42;15.40;;;16.50;99.90;;;;;;5086309;28;20468;-52
2022/08/26 02:08:38;;;;;;;28.17;15.35;;;16.50;99.90;;;;;;5071874;28;20093;-53
2022/08/26 02:11:05;;;;;;;28.52;13.70;;;16.50;99.90;;;;;;5073346;28;20345;-52
2022/08/26 02:13:33;;;;;;;22.15;14.52;;;16.40;99.90;;;;;;5084738;28;20043;-54
2022/08/26 02:16:02;;;;;;;24.45;14.13;;;16.40;99.90;;;;;;5087656;28;20032;-51
2022/08/26 02:18:29;;;;;;;28.52;15.02;;;16.40;99.90;;;;;;5071688;28;20020;-52
2022/08/26 02:20:55;;;;;;;34.15;15.60;;;16.40;99.90;;;;;;5072013;28;20025;-52
2022/08/26 02:23:21;;;;;;;28.70;14.73;;;16.40;99.90;;;;;;5071711;28;20112;-52
2022/08/26 02:26:10;;;;;;;34.92;14.88;;;16.30;99.90;;;;;;5072023;28;20419;-51
2022/08/26 02:29:02;;;;;;;25.58;13.93;;;16.30;99.90;;;;;;5071896;28;20028;-53
2022/08/26 02:31:28;;;;;;;31.13;14.45;;;16.30;99.90;;;;;;5071654;28;20061;-51
2022/08/26 02:33:54;;;;;;;24.67;13.45;;;16.30;99.90;;;;;;5071351;28;20037;-52
2022/08/26 02:36:22;;;;;;;21.98;13.88;;;16.30;99.90;;;;;;5071648;28;20063;-53
2022/08/26 02:38:48;;;;;;;28.77;13.68;;;16.30;99.90;;;;;;5071694;28;20029;-56
2022/08/26 02:41:14;;;;;;;21.85;14.43;;;16.30;99.90;;;;;;5071613;28;20028;-51
2022/08/26 02:43:39;;;;;;;19.80;14.18;;;16.20;99.90;;;;;;5071571;28;20024;-54
2022/08/26 02:46:06;;;;;;;25.73;14.60;;;16.30;99.90;;;;;;5071598;28;20040;-52
2022/08/26 02:48:32;;;;;;;30.58;15.73;;;16.20;99.90;;;;;;5071523;28;20020;-52
2022/08/26 02:50:59;;;;;;;28.90;16.65;;;16.20;99.90;;;;;;5071592;28;20363;-54
2022/08/26 02:53:25;;;;;;;28.02;15.80;;;16.20;99.90;;;;;;5071518;28;20021;-52
2022/08/26 02:55:51;;;;;;;31.60;15.57;;;16.20;99.90;;;;;;5071672;28;20031;-53
2022/08/26 02:58:17;;;;;;;30.95;15.18;;;16.20;99.90;;;;;;5071254;28;20460;-53
2022/08/26 03:00:46;;;;;;;25.50;16.45;;;16.10;99.90;;;;;;5073621;28;20036;-53
2022/08/26 03:03:13;;;;;;;34.92;17.42;;;16.10;99.90;;;;;;5091159;28;20032;-55
2022/08/26 03:05:38;;;;;;;37.90;19.40;;;16.10;99.90;;;;;;5086939;28;20056;-54
2022/08/26 03:08:04;;;;;;;41.42;19.80;;;16.10;99.90;;;;;;5071143;28;20088;-53
2022/08/26 03:10:31;;;;;;;33.63;19.95;;;16.10;99.90;;;;;;5072418;28;20029;-55
2022/08/26 03:12:58;;;;;;;33.95;22.70;;;16.00;99.90;;;;;;5089425;28;20067;-52
2022/08/26 03:15:25;;;;;;;41.72;21.75;;;16.00;99.90;;;;;;5091079;28;20028;-55
2022/08/26 03:17:50;;;;;;;40.25;21.52;;;16.00;99.90;;;;;;5091250;28;20127;-52
2022/08/26 03:20:17;;;;;;;33.15;18.25;;;16.00;99.90;;;;;;5090888;28;20103;-51
2022/08/26 03:22:43;;;;;;;27.83;16.55;;;16.00;99.90;;;;;;5072906;28;20036;-54
2022/08/26 03:25:11;;;;;;;32.70;19.23;;;16.00;99.90;;;;;;5071330;28;20450;-55
2022/08/26 03:27:37;;;;;;;36.35;19.13;;;16.00;99.90;;;;;;5088432;28;20028;-51
2022/08/26 03:32:49;;;;;;;38.80;21.73;;;16.00;99.90;;;;;;5072206;28;20035;-54
2022/08/26 03:35:15;;;;;;;38.90;20.73;;;16.00;99.90;;;;;;5070986;28;20021;-51
2022/08/26 03:37:40;;;;;;;25.25;18.42;;;16.00;99.90;;;;;;5069695;28;20628;-52
2022/08/26 03:40:09;;;;;;;29.08;18.45;;;16.10;99.90;;;;;;5071548;28;20480;-51
2022/08/26 03:42:36;;;;;;;28.52;18.23;;;16.10;99.90;;;;;;5088091;28;20374;-51
2022/08/26 03:45:03;;;;;;;22.05;16.60;;;16.10;99.90;;;;;;5092224;28;20059;-53
2022/08/26 03:47:30;;;;;;;20.27;15.55;;;16.20;99.90;;;;;;5094938;28;20055;-54
2022/08/26 03:49:56;;;;;;;32.67;17.38;;;16.20;99.90;;;;;;5094896;28;20427;-54
2022/08/26 03:52:22;;;;;;;24.15;17.27;;;16.30;99.90;;;;;;5089829;28;20056;-53
2022/08/26 03:54:48;;;;;;;28.45;19.25;;;16.30;99.90;;;;;;5094824;28;20093;-52
2022/08/26 03:57:14;;;;;;;30.98;18.50;;;16.30;99.90;;;;;;5092659;28;20020;-54
2022/08/26 03:59:39;;;;;;;35.72;20.00;;;16.40;99.90;;;;;;5074721;28;20466;-51
2022/08/26 04:02:05;;;;;;;35.80;19.10;;;16.40;99.90;;;;;;5086659;28;20020;-54
2022/08/26 04:04:31;;;;;;;26.65;18.85;;;16.50;99.90;;;;;;5093174;28;20063;-54
2022/08/26 04:06:58;;;;;;;34.30;18.85;;;16.50;99.90;;;;;;5082098;28;20044;-51
2022/08/26 04:09:25;;;;;;;24.65;17.33;;;16.60;99.90;;;;;;5080069;28;20450;-55
2022/08/26 04:11:51;;;;;;;26.98;17.55;;;16.60;99.90;;;;;;5092836;28;20035;-50
2022/08/26 04:14:20;;;;;;;22.05;16.30;;;16.60;99.90;;;;;;5092778;28;20024;-55
2022/08/26 04:16:47;;;;;;;24.40;17.55;;;16.70;99.90;;;;;;5094342;28;20032;-51
2022/08/26 04:19:14;;;;;;;27.75;16.50;;;16.70;99.90;;;;;;5094020;28;20064;-51
2022/08/26 04:21:41;;;;;;;27.80;16.33;;;16.80;99.90;;;;;;5085522;28;20047;-52
2022/08/26 04:24:09;;;;;;;25.50;17.45;;;16.80;99.90;;;;;;5074129;28;20032;-51
2022/08/26 04:26:38;;;;;;;25.77;15.95;;;16.90;99.90;;;;;;5074107;28;20052;-51
2022/08/26 04:29:07;;;;;;;28.20;16.67;;;16.90;99.90;;;;;;5076538;28;20077;-51
2022/08/26 04:31:34;;;;;;;25.25;15.73;;;17.00;99.90;;;;;;5086469;28;20046;-52
2022/08/26 04:34:00;;;;;;;24.08;16.25;;;17.10;99.90;;;;;;5072595;28;20036;-53
2022/08/26 04:36:27;;;;;;;18.27;15.07;;;17.10;99.90;;;;;;5089570;28;20028;-52
2022/08/26 04:38:52;;;;;;;26.77;16.48;;;17.20;99.90;;;;;;5093918;28;20111;-51
2022/08/26 04:41:18;;;;;;;28.95;14.38;;;17.20;99.90;;;;;;5086137;28;20170;-54
2022/08/26 04:43:47;;;;;;;21.63;14.52;;;17.20;99.90;;;;;;5073860;28;20630;-51
2022/08/26 04:46:17;;;;;;;24.90;14.93;;;17.30;99.90;;;;;;5074686;28;20364;-51
2022/08/26 04:48:43;;;;;;;26.17;16.27;;;17.20;99.90;;;;;;5073770;28;20032;-52
2022/08/26 04:51:09;;;;;;;28.35;17.00;;;17.30;99.90;;;;;;5074846;28;20024;-53
2022/08/26 04:53:36;;;;;;;22.88;16.58;;;17.30;99.90;;;;;;5073549;28;20645;-52
2022/08/26 04:56:02;;;;;;;25.73;16.65;;;17.30;99.90;;;;;;5085380;28;20024;-51
2022/08/26 04:58:27;;;;;;;32.13;18.13;;;17.40;99.90;;;;;;5093369;28;20086;-52
2022/08/26 05:00:55;;;;;;;24.45;16.33;;;17.40;99.90;;;;;;5078117;28;20038;-52
2022/08/26 05:03:22;;;;;;;23.88;17.17;;;17.40;99.90;;;;;;5083665;28;20078;-52
2022/08/26 05:05:48;;;;;;;24.60;17.25;;;17.50;99.90;;;;;;5082610;28;20028;-51
2022/08/26 05:08:15;;;;;;;25.52;16.90;;;17.60;99.90;;;;;;5071495;28;20076;-53
2022/08/26 05:10:48;;;;;;;23.77;17.33;;;17.60;99.90;;;;;;5088881;28;20031;-54
2022/08/26 05:13:18;;;;;;;23.63;17.25;;;17.70;99.90;;;;;;5093124;28;20459;-54
2022/08/26 05:15:45;;;;;;;28.85;16.42;;;17.80;99.90;;;;;;5082307;28;20032;-51
2022/08/26 05:18:12;;;;;;;29.58;17.67;;;17.80;99.90;;;;;;5073122;28;20024;-51
2022/08/26 05:20:43;;;;;;;22.55;16.58;;;17.90;99.90;;;;;;5073254;28;20021;-53
2022/08/26 05:23:09;;;;;;;19.20;16.08;;;17.90;99.90;;;;;;5073004;28;20051;-52
2022/08/26 05:25:43;;;;;;;28.25;16.80;;;18.00;99.90;;;;;;5080716;28;20053;-51
2022/08/26 05:28:10;;;;;;;29.63;14.75;;;18.10;99.90;;;;;;5092780;28;20035;-50
2022/08/26 05:30:37;;;;;;;22.95;14.00;;;18.10;99.90;;;;;;5092779;28;20495;-50
2022/08/26 05:33:03;;;;;;;18.40;13.52;;;18.20;99.90;;;;;;5071878;28;20438;-50
2022/08/26 05:35:30;;;;;;;27.02;14.90;;;18.30;99.90;;;;;;5079740;28;20016;-50
2022/08/26 05:38:01;;;;;;;22.48;14.32;;;18.30;99.90;;;;;;5092879;28;20071;-52
2022/08/26 05:40:28;;;;;;;17.10;13.65;;;18.40;99.90;;;;;;5088635;28;20685;-55
2022/08/26 05:42:54;;;;;;;20.90;14.23;;;18.40;99.90;;;;;;5072647;28;20142;-52
2022/08/26 05:45:22;;;;;;;17.80;15.45;;;18.40;99.90;;;;;;5072460;28;20421;-51
2022/08/26 05:47:47;;;;;;;24.48;13.55;;;18.60;99.90;;;;;;5072188;28;20028;-50
2022/08/26 05:50:13;;;;;;;23.80;15.52;;;18.80;99.90;;;;;;5072459;28;20021;-50
2022/08/26 05:52:39;;;;;;;23.63;16.17;;;18.80;99.90;;;;;;5072227;28;20025;-52
2022/08/26 05:55:05;;;;;;;25.33;17.67;;;18.90;99.90;;;;;;5072264;28;20025;-51
2022/08/26 05:57:30;;;;;;;27.42;15.50;;;19.00;99.90;;;;;;5072247;28;20098;-49
2022/08/26 05:59:56;;;;;;;23.52;14.68;;;19.10;99.90;;;;;;5071929;28;20083;-50
2022/08/26 06:02:22;;;;;;;21.38;15.30;;;19.20;99.90;;;;;;5074879;28;20035;-53
2022/08/26 06:04:48;;;;;;;17.00;14.43;;;19.20;99.90;;;;;;5090697;28;20039;-53
2022/08/26 06:07:15;;;;;;;22.50;15.45;;;19.30;99.90;;;;;;5074892;28;20048;-50
2022/08/26 06:09:41;;;;;;;21.77;16.00;;;19.40;99.90;;;;;;5072232;28;20039;-53
2022/08/26 06:12:07;;;;;;;19.73;15.10;;;19.50;99.90;;;;;;5073086;28;20487;-51
2022/08/26 06:14:34;;;;;;;26.05;16.58;;;19.60;99.90;;;;;;5071950;28;20502;-53
2022/08/26 06:17:00;;;;;;;23.00;15.10;;;19.70;99.90;;;;;;5090795;28;20024;-52
2022/08/26 06:19:25;;;;;;;21.52;14.45;;;19.70;99.90;;;;;;5091931;28;20024;-54
2022/08/26 06:21:51;;;;;;;25.23;15.30;;;19.80;99.90;;;;;;5091822;28;20422;-52
2022/08/26 06:27:04;;;;;;;24.50;16.55;;;19.90;99.90;;;;;;5088897;28;20394;-50
2022/08/26 06:29:32;;;;;;;30.00;18.45;;;19.90;99.90;;;;;;5071656;28;20020;-52
2022/08/26 06:31:59;;;;;;;27.08;18.65;;;20.10;99.90;;;;;;5071688;28;20108;-53
2022/08/26 06:34:29;;;;;;;42.17;21.73;;;20.20;99.90;;;;;;5085448;28;20359;-49
2022/08/26 06:36:57;;;;;;;42.30;19.88;;;20.40;99.90;;;;;;5091820;28;20036;-49
2022/08/26 06:39:23;;;;;;;39.83;20.02;;;20.50;99.90;;;;;;5090063;28;20024;-51
2022/08/26 06:41:49;;;;;;;68.50;29.98;;;20.60;99.90;;;;;;5078846;28;20040;-52
2022/08/26 06:44:15;;;;;;;51.03;26.30;;;20.70;99.90;;;;;;5071616;28;20025;-54
2022/08/26 06:46:42;;;;;;;52.05;28.13;;;20.80;99.90;;;;;;5071610;28;20928;-51
2022/08/26 06:49:08;;;;;;;48.08;29.63;;;20.70;99.90;;;;;;5090616;28;20059;-53
2022/08/26 06:51:36;;;;;;;37.42;22.73;;;20.70;99.90;;;;;;5091408;28;20024;-52
2022/08/26 06:54:03;;;;;;;42.47;25.20;;;20.70;99.90;;;;;;5091724;28;20024;-53
2022/08/26 06:56:35;;;;;;;42.90;26.17;;;21.00;99.90;;;;;;5085765;28;20056;-53
2022/08/26 06:59:02;;;;;;;38.25;24.10;;;21.00;99.90;;;;;;5079201;28;20065;-53
2022/08/26 07:01:31;;;;;;;40.72;24.85;;;21.20;99.90;;;;;;5086953;28;20032;-52
2022/08/26 07:04:01;;;;;;;38.45;23.45;;;21.20;99.90;;;;;;5055471;28;20079;-52
2022/08/26 07:06:27;;;;;;;42.00;25.80;;;21.50;99.90;;;;;;5078357;28;20069;-53
2022/08/26 07:09:00;;;;;;;48.60;26.73;;;21.60;99.90;;;;;;5071026;28;20580;-54
2022/08/26 07:11:26;;;;;;;34.80;23.40;;;21.80;99.90;;;;;;5072273;28;20033;-52
2022/08/26 07:13:53;;;;;;;41.13;25.13;;;21.70;99.90;;;;;;5071703;28;20032;-53
2022/08/26 07:16:18;;;;;;;41.25;23.42;;;21.90;99.90;;;;;;5073358;28;20025;-53
2022/08/26 07:18:45;;;;;;;37.95;24.38;;;22.00;99.90;;;;;;5082633;28;20031;-52
2022/08/26 07:21:13;;;;;;;43.03;25.75;;;22.10;99.90;;;;;;5094810;28;20102;-57
2022/08/26 07:23:39;;;;;;;33.40;22.52;;;22.00;99.90;;;;;;5094780;28;20028;-54
2022/08/26 07:26:09;;;;;;;34.28;21.98;;;22.40;99.90;;;;;;5094255;28;20145;-50
2022/08/26 07:28:36;;;;;;;32.85;23.00;;;22.60;99.90;;;;;;5094124;28;20028;-54
2022/08/26 07:31:07;;;;;;;28.92;21.00;;;22.70;99.90;;;;;;5094383;28;20418;-53
2022/08/26 07:33:33;;;;;;;33.75;23.88;;;22.90;99.90;;;;;;5074320;28;20170;-53
2022/08/26 07:35:59;;;;;;;33.22;22.33;;;22.90;99.90;;;;;;5073848;28;20017;-52
2022/08/26 07:38:25;;;;;;;47.65;24.83;;;23.20;99.90;;;;;;5073696;28;20024;-53
2022/08/26 07:40:50;;;;;;;32.20;24.15;;;23.20;99.90;;;;;;5073629;28;20538;-54
2022/08/26 07:43:17;;;;;;;45.55;22.50;;;22.90;99.90;;;;;;5073688;28;20379;-51
2022/08/26 07:45:43;;;;;;;35.45;24.38;;;23.10;99.90;;;;;;5073613;28;20017;-55
2022/08/26 07:48:09;;;;;;;31.30;21.65;;;23.00;99.90;;;;;;5075055;28;20099;-55
2022/08/26 07:50:35;;;;;;;37.53;24.75;;;23.40;99.90;;;;;;5072860;28;20127;-51
2022/08/26 07:53:03;;;;;;;34.08;22.48;;;23.60;99.90;;;;;;5072906;28;20028;-53
2022/08/26 07:55:29;;;;;;;29.85;21.58;;;23.70;99.90;;;;;;5073009;28;20524;-52
2022/08/26 07:57:55;;;;;;;36.90;20.40;;;24.10;99.90;;;;;;5071617;28;20020;-53
2022/08/26 08:00:20;;;;;;;29.17;20.73;;;24.70;99.90;;;;;;5072789;28;20025;-53
2022/08/26 08:02:47;;;;;;;32.13;17.70;;;24.90;99.90;;;;;;5073336;28;20022;-56
2022/08/26 08:05:15;;;;;;;27.45;16.90;;;25.10;99.90;;;;;;5076335;28;20069;-53
2022/08/26 08:07:43;;;;;;;20.20;13.98;;;25.10;99.90;;;;;;5071016;28;20056;-55
2022/08/26 08:10:12;;;;;;;24.50;16.05;;;25.10;99.90;;;;;;5072621;28;20020;-52
2022/08/26 08:12:39;;;;;;;21.42;13.52;;;25.50;99.90;;;;;;5072694;28;20543;-55
2022/08/26 08:15:05;;;;;;;24.30;14.68;;;25.40;99.90;;;;;;5072666;28;20023;-53
2022/08/26 08:17:33;;;;;;;22.13;14.82;;;25.40;99.90;;;;;;5072569;28;20017;-56
2022/08/26 08:19:59;;;;;;;24.17;15.75;;;25.70;99.90;;;;;;5072504;28;20074;-56
2022/08/26 08:22:24;;;;;;;27.67;15.30;;;25.30;99.90;;;;;;5072363;28;20020;-51
2022/08/26 08:24:50;;;;;;;24.17;15.15;;;25.10;99.90;;;;;;5072567;28;20480;-52
2022/08/26 08:27:16;;;;;;;28.50;17.25;;;25.30;99.90;;;;;;5072328;28;20107;-51
2022/08/26 08:29:42;;;;;;;28.85;16.40;;;25.20;99.90;;;;;;5073014;28;20052;-52
2022/08/26 08:32:09;;;;;;;23.70;14.68;;;24.90;99.90;;;;;;5072222;28;20063;-51
2022/08/26 08:34:35;;;;;;;21.55;14.80;;;25.10;99.90;;;;;;5072381;28;20021;-51
2022/08/26 08:37:01;;;;;;;27.70;14.80;;;25.00;99.90;;;;;;5086580;28;20502;-51
2022/08/26 08:39:26;;;;;;;21.63;14.20;;;25.10;99.90;;;;;;5092399;28;20032;-56
2022/08/26 08:41:58;;;;;;;26.20;14.55;;;24.70;99.90;;;;;;5092780;28;20055;-54
2022/08/26 08:44:24;;;;;;;21.23;14.30;;;24.30;99.90;;;;;;5083466;28;20024;-51
2022/08/26 08:47:18;;;;;;;20.30;15.05;;;24.50;99.90;;;;;;5072198;28;20025;-50
2022/08/26 08:49:45;;;;;;;17.30;12.15;;;24.20;99.90;;;;;;5072360;28;20479;-54
2022/08/26 08:52:30;;;;;;;23.98;12.00;;;24.20;99.90;;;;;;5071908;28;20025;-53
2022/08/26 08:54:57;;;;;;;16.00;11.25;;;24.40;99.90;;;;;;5072378;28;20059;-50
2022/08/26 08:58:00;;;;;;;26.23;11.82;;;24.30;99.90;;;;;;5080410;28;20511;-51
2022/08/26 09:00:30;;;;;;;18.85;11.45;;;24.40;99.90;;;;;;5091605;28;20438;-53
2022/08/26 09:03:02;;;;;;;20.70;11.38;;;24.50;99.90;;;;;;5092528;28;20059;-52
2022/08/26 09:05:30;;;;;;;20.35;11.80;;;24.60;99.90;;;;;;5091723;28;20016;-50
2022/08/26 09:08:03;;;;;;;28.52;13.48;;;24.70;99.90;;;;;;5071777;28;20039;-53
2022/08/26 09:10:40;;;;;;;23.30;11.85;;;24.50;99.90;;;;;;5072565;28;20034;-52
2022/08/26 09:13:12;;;;;;;24.10;11.60;;;24.50;99.90;;;;;;5072843;28;20120;-55
2022/08/26 09:15:58;;;;;;;22.67;11.05;;;24.70;99.90;;;;;;5076379;28;20372;-53
2022/08/26 09:18:30;;;;;;;15.38;10.90;;;24.50;99.90;;;;;;5082661;28;20017;-55
2022/08/26 09:21:02;;;;;;;14.85;10.85;;;24.70;99.90;;;;;;5070332;28;20012;-53
2022/08/26 09:23:29;;;;;;;16.55;9.98;;;25.00;99.90;;;;;;5085741;28;20064;-55
2022/08/26 09:26:01;;;;;;;27.17;10.63;;;25.10;99.90;;;;;;5091932;28;20031;-57
2022/08/26 09:28:28;;;;;;;21.23;10.18;;;24.90;99.90;;;;;;5085892;28;20471;-52
2022/08/26 09:31:18;;;;;;;29.85;9.73;;;25.20;99.90;;;;;;5070336;28;20372;-51
2022/08/26 09:33:43;;;;;;;20.65;9.98;;;25.40;99.90;;;;;;5071359;28;20037;-53
2022/08/26 09:36:21;;;;;;;22.75;10.27;;;25.10;99.90;;;;;;5071707;28;20108;-54
2022/08/26 09:38:49;;;;;;;22.52;9.82;;;25.40;99.90;;;;;;5071469;28;20384;-56
2022/08/26 09:41:32;;;;;;;18.50;9.43;;;25.50;99.90;;;;;;5070911;28;20384;-52
2022/08/26 09:44:12;;;;;;;20.92;10.88;;;25.80;99.90;;;;;;5069984;28;20131;-52
2022/08/26 09:46:51;;;;;;;18.13;10.43;;;25.90;99.90;;;;;;5071141;28;20036;-53
2022/08/26 09:49:31;;;;;;;20.58;11.00;;;26.10;99.90;;;;;;5071389;28;20375;-52
2022/08/26 09:52:09;;;;;;;16.15;10.10;;;26.00;99.90;;;;;;5070958;28;20028;-52
2022/08/26 09:54:37;;;;;;;25.25;9.50;;;26.40;99.90;;;;;;5070966;28;20027;-51
2022/08/26 09:57:33;;;;;;;16.30;8.75;;;26.30;99.90;;;;;;5071107;28;20100;-53
2022/08/26 10:00:00;;;;;;;20.80;10.73;;;26.70;99.80;;;;;;5058282;28;20032;-55
2022/08/26 10:02:31;;;;;;;15.27;9.93;;;26.90;99.80;;;;;;5071308;28;20032;-53
2022/08/26 10:05:00;;;;;;;10.60;8.60;;;27.10;98.60;;;;;;5076764;28;20020;-54
2022/08/26 10:07:42;;;;;;;13.98;7.70;;;27.40;98.50;;;;;;5091041;28;20514;-56
2022/08/26 10:10:37;;;;;;;9.95;8.07;;;27.60;97.10;;;;;;5091119;28;20051;-57
2022/08/26 10:13:05;;;;;;;11.18;6.85;;;27.70;96.30;;;;;;5091054;28;20089;-56
2022/08/26 10:15:54;;;;;;;23.10;9.00;;;28.10;95.90;;;;;;5090996;28;20024;-53
2022/08/26 10:18:30;;;;;;;15.02;8.32;;;28.30;95.70;;;;;;5070964;28;20483;-55
2022/08/26 10:21:24;;;;;;;19.05;8.20;;;28.00;96.20;;;;;;5068835;28;20021;-53
2022/08/26 10:23:54;;;;;;;16.40;7.50;;;28.20;96.50;;;;;;5050668;28;20033;-54
2022/08/26 10:26:26;;;;;;;19.60;7.38;;;28.20;95.60;;;;;;5084693;28;20105;-56
2022/08/26 10:29:00;;;;;;;20.23;8.37;;;28.10;94.70;;;;;;5088899;28;20096;-49
2022/08/26 10:31:50;;;;;;;19.55;8.05;;;28.20;94.90;;;;;;5090580;28;20074;-53
2022/08/26 10:34:17;;;;;;;13.88;7.78;;;28.10;95.50;;;;;;5090552;28;20077;-52
2022/08/26 10:36:56;;;;;;;15.57;8.75;;;28.90;94.80;;;;;;5078939;28;20028;-51
2022/08/26 10:39:33;;;;;;;14.85;8.82;;;29.20;94.20;;;;;;5070181;28;20025;-51
2022/08/26 10:42:06;;;;;;;13.60;8.48;;;29.40;94.60;;;;;;5070488;28;20024;-52
2022/08/26 10:44:35;;;;;;;23.73;9.68;;;29.10;94.60;;;;;;5070406;28;20542;-52
2022/08/26 10:47:18;;;;;;;21.00;10.05;;;29.10;93.90;;;;;;5070503;28;20031;-63
2022/08/26 10:49:47;;;;;;;27.33;11.10;;;28.70;94.60;;;;;;5070298;28;20616;-54
2022/08/26 10:52:42;;;;;;;18.15;8.93;;;28.70;94.70;;;;;;5081354;28;20036;-54
2022/08/26 10:55:15;;;;;;;20.33;9.38;;;29.20;94.60;;;;;;5090876;28;20012;-51
2022/08/26 10:58:05;;;;;;;19.52;9.32;;;29.50;92.90;;;;;;5091517;28;20026;-55
2022/08/26 11:03:36;;;;;;;32.70;9.30;;;28.70;92.50;;;;;;5087575;28;20118;-70
2022/08/26 11:06:22;;;;;;;16.80;8.32;;;29.50;93.00;;;;;;5076162;28;20486;-54
2022/08/26 11:08:51;;;;;;;24.70;8.57;;;30.00;92.60;;;;;;5064542;28;20047;-54
2022/08/26 11:11:39;;;;;;;13.93;8.07;;;29.90;91.80;;;;;;5072872;28;20479;-52
2022/08/26 11:14:17;;;;;;;21.02;9.02;;;30.00;92.10;;;;;;5079650;28;20129;-54
2022/08/26 11:16:46;;;;;;;23.23;8.88;;;29.70;92.40;;;;;;5080118;28;20032;-54
2022/08/26 11:19:40;;;;;;;16.30;8.40;;;29.40;92.50;;;;;;5071342;28;20569;-53
2022/08/26 11:22:22;;;;;;;18.10;8.02;;;29.60;92.00;;;;;;5046941;28;20147;-54
2022/08/26 11:24:51;;;;;;;12.38;8.35;;;30.00;91.70;;;;;;5073918;28;20060;-53
2022/08/26 11:27:26;;;;;;;15.95;8.27;;;29.50;91.90;;;;;;5063108;28;20119;-53
2022/08/26 11:30:14;;;;;;;23.98;7.97;;;30.30;92.20;;;;;;5074096;28;20028;-54
2022/08/26 11:32:40;;;;;;;23.60;8.25;;;31.60;91.00;;;;;;5062890;28;20093;-53
2022/08/26 11:35:11;;;;;;;24.40;7.90;;;32.70;85.50;;;;;;5070422;28;20036;-55
2022/08/26 11:38:00;;;;;;;19.70;7.75;;;33.10;85.40;;;;;;5060224;28;20383;-54
2022/08/26 11:40:34;;;;;;;18.85;6.18;;;33.10;82.80;;;;;;5051017;28;20036;-55
2022/08/26 11:43:22;;;;;;;21.50;6.60;;;34.00;79.30;;;;;;5060332;28;20044;-55
2022/08/26 11:46:04;;;;;;;10.63;6.43;;;34.40;78.80;;;;;;5060873;28;20468;-55
2022/08/26 11:48:39;;;;;;;15.77;6.90;;;36.90;72.10;;;;;;5063045;28;20039;-53
2022/08/26 11:51:09;;;;;;;17.08;6.38;;;36.80;69.60;;;;;;5062950;28;20032;-55
2022/08/26 11:53:38;;;;;;;20.58;5.68;;;36.20;67.80;;;;;;5062119;28;20138;-54
2022/08/26 11:56:15;;;;;;;13.13;6.00;;;35.50;67.40;;;;;;5071694;28;20020;-55
2022/08/26 11:58:43;;;;;;;15.65;5.47;;;37.00;67.00;;;;;;5061599;28;20070;-56
2022/08/26 12:01:12;;;;;;;13.75;5.80;;;37.30;64.60;;;;;;5060516;28;20036;-55
2022/08/26 12:03:43;;;;;;;24.83;7.20;;;38.40;64.60;;;;;;5060045;28;20127;-58
2022/08/26 12:06:12;;;;;;;15.60;6.95;;;39.00;61.90;;;;;;5061098;28;20041;-57
2022/08/26 12:08:42;;;;;;;10.35;5.43;;;38.10;58.60;;;;;;5063443;28;20051;-57
2022/08/26 12:11:18;;;;;;;17.40;5.65;;;37.70;59.50;;;;;;5063753;28;22441;-57
2022/08/26 12:13:56;;;;;;;11.93;5.40;;;36.50;60.70;;;;;;5063871;28;20058;-57
2022/08/26 12:16:24;;;;;;;13.25;5.05;;;37.50;62.70;;;;;;5063709;28;20029;-57
2022/08/26 12:18:50;;;;;;;16.52;6.55;;;38.20;59.70;;;;;;5063044;28;20090;-56
2022/08/26 12:21:23;;;;;;;12.88;6.45;;;36.10;60.60;;;;;;5063436;28;20029;-56
2022/08/26 12:24:00;;;;;;;19.27;7.32;;;36.30;59.20;;;;;;5063556;28;20123;-55
2022/08/26 12:26:35;;;;;;;16.88;6.85;;;34.50;61.50;;;;;;5063457;28;20535;-54
2022/08/26 12:29:09;;;;;;;16.75;7.20;;;33.70;64.30;;;;;;5063185;28;20361;-56
2022/08/26 12:31:40;;;;;;;18.48;6.22;;;33.00;64.90;;;;;;5064899;28;20627;-54
2022/08/26 12:34:09;;;;;;;15.35;6.55;;;32.70;66.00;;;;;;5082797;28;20023;-55
2022/08/26 12:36:41;;;;;;;31.02;8.20;;;32.30;67.70;;;;;;5062685;28;20025;-57
2022/08/26 12:39:22;;;;;;;15.05;6.85;;;32.70;68.00;;;;;;5063835;28;20021;-54
2022/08/26 12:41:53;;;;;;;13.60;6.05;;;33.30;67.30;;;;;;5063171;28;20033;-56
2022/08/26 12:44:53;;;;;;;21.92;6.90;;;33.30;66.10;;;;;;5062310;28;20044;-56
2022/08/26 12:47:28;;;;;;;16.90;5.95;;;33.90;65.10;;;;;;5064168;28;20135;-57
2022/08/26 12:50:02;;;;;;;19.40;6.38;;;34.60;64.00;;;;;;5080496;28;20035;-55
2022/08/26 12:52:30;;;;;;;22.92;6.80;;;34.60;62.70;;;;;;5081262;28;20221;-53